Backworth, United Kingdom
Current Conditions -  °F | °C
As of 5:50 AM on Friday 28 Nov 2014 (Local Time) from EGNT Reporting Station
Broken Clouds Broken Clouds  
Wind Chill: 43°   Ceiling: 800
Heat Index: 43°   Visibility: 6mi
Dew Point: 43°   Wind: 3mph
Humidity: 100%   Direction: 340°NNW
Pressure: 29.68"   Gusts: NA
Location:  55.04°N, 1.53°W
Report Text: EGNT 280550Z 34003KT 9999 BKN008 06/06 Q1005
Loading
Personal Weather Stations






























Interactive Weather Map New forecast layout! Learn more

10-Day Weather Forecast

Advertisements
Track Severe Weather on mobile